EZY81E EGGP-EGNS
Flight info
| Callsign | EZY81E |
|---|---|
| Flight time | 0h 19m |
| Altitude | 12000 |
| Route | WAL M146 LUSOD DCT IOM |
| Aircraft | A20N/M-SDE2E3FGHIRWXY/LB1 |
Departure
| Time | 2026-04-29 17:09 |
|---|---|
| Airport | Liverpool John Lennon Airport (EGGP) |
Arrival
| Time | 2026-04-29 17:28 |
|---|---|
| Airport | Isle of Man Airport (EGNS) |
| Time | Latitude | Longitude | Altitude | Speed | Heading |
|---|---|---|---|---|---|
| 2026-04-29 17:02 | 53.33671 | -2.85201 | 94 ft | 0 kts | 265° |
| 2026-04-29 17:04 | 53.33673 | -2.85178 | 95 ft | 2 kts | 265° |
| 2026-04-29 17:04 | 53.33674 | -2.85150 | 94 ft | 2 kts | 264° |
| 2026-04-29 17:04 | 53.33676 | -2.85123 | 93 ft | 2 kts | 261° |
| 2026-04-29 17:04 | 53.33679 | -2.85096 | 94 ft | 2 kts | 244° |
| 2026-04-29 17:05 | 53.33690 | -2.85082 | 95 ft | 1 kts | 178° |
| 2026-04-29 17:05 | 53.33692 | -2.85082 | 95 ft | 0 kts | 174° |
| 2026-04-29 17:06 | 53.33691 | -2.85082 | 95 ft | 1 kts | 174° |
| 2026-04-29 17:06 | 53.33673 | -2.85078 | 94 ft | 4 kts | 174° |
| 2026-04-29 17:06 | 53.33627 | -2.85073 | 94 ft | 9 kts | 176° |
| 2026-04-29 17:06 | 53.33545 | -2.85078 | 95 ft | 11 kts | 210° |
| 2026-04-29 17:07 | 53.33520 | -2.85184 | 97 ft | 13 kts | 263° |
| 2026-04-29 17:07 | 53.33513 | -2.85299 | 94 ft | 17 kts | 264° |
| 2026-04-29 17:07 | 53.33500 | -2.85630 | 94 ft | 26 kts | 267° |
| 2026-04-29 17:07 | 53.33490 | -2.85966 | 94 ft | 32 kts | 267° |
| 2026-04-29 17:08 | 53.33462 | -2.86364 | 94 ft | 37 kts | 262° |
| 2026-04-29 17:08 | 53.33398 | -2.86727 | 94 ft | 21 kts | 204° |
| 2026-04-29 17:08 | 53.33317 | -2.86675 | 94 ft | 23 kts | 117° |
| 2026-04-29 17:08 | 53.33307 | -2.86219 | 97 ft | 70 kts | 86° |
| 2026-04-29 17:09 | 53.33365 | -2.84883 | 385 ft | 138 kts | 86° |
| 2026-04-29 17:09 | 53.33487 | -2.83221 | 1611 ft | 151 kts | 83° |
| 2026-04-29 17:09 | 53.33614 | -2.81354 | 2877 ft | 171 kts | 86° |
| 2026-04-29 17:09 | 53.33733 | -2.79346 | 4092 ft | 193 kts | 80° |
| 2026-04-29 17:10 | 53.34470 | -2.77246 | 5304 ft | 232 kts | 50° |
| 2026-04-29 17:10 | 53.35986 | -2.75809 | 6387 ft | 271 kts | 21° |
| 2026-04-29 17:10 | 53.37936 | -2.75698 | 7662 ft | 290 kts | 352° |
| 2026-04-29 17:10 | 53.39779 | -2.77059 | 9086 ft | 303 kts | 326° |
| 2026-04-29 17:11 | 53.41238 | -2.79677 | 10222 ft | 319 kts | 304° |
| 2026-04-29 17:11 | 53.42081 | -2.83088 | 10303 ft | 317 kts | 278° |
| 2026-04-29 17:11 | 53.42019 | -2.86743 | 10437 ft | 324 kts | 252° |
| 2026-04-29 17:11 | 53.41041 | -2.90271 | 10847 ft | 345 kts | 233° |
| 2026-04-29 17:12 | 53.39835 | -2.93867 | 11340 ft | 358 kts | 242° |
| 2026-04-29 17:12 | 53.39091 | -2.97881 | 11453 ft | 364 kts | 256° |
| 2026-04-29 17:12 | 53.38820 | -3.02076 | 11569 ft | 368 kts | 265° |
| 2026-04-29 17:12 | 53.38803 | -3.03533 | 11606 ft | 368 kts | 267° |
| 2026-04-29 17:13 | 53.39094 | -3.10661 | 11787 ft | 370 kts | 282° |
| 2026-04-29 17:13 | 53.40088 | -3.14636 | 11902 ft | 372 kts | 302° |
| 2026-04-29 17:13 | 53.41150 | -3.16897 | 11982 ft | 372 kts | 314° |
| 2026-04-29 17:13 | 53.42979 | -3.19984 | 12092 ft | 373 kts | 316° |
| 2026-04-29 17:14 | 53.45416 | -3.24082 | 12248 ft | 374 kts | 315° |
| 2026-04-29 17:14 | 53.46656 | -3.26178 | 12321 ft | 375 kts | 315° |
| 2026-04-29 17:14 | 53.48490 | -3.29297 | 12325 ft | 375 kts | 315° |
| 2026-04-29 17:14 | 53.50321 | -3.32422 | 12319 ft | 375 kts | 315° |
| 2026-04-29 17:15 | 53.52146 | -3.35547 | 12319 ft | 375 kts | 315° |
| 2026-04-29 17:15 | 53.53947 | -3.38635 | 12320 ft | 375 kts | 315° |
| 2026-04-29 17:15 | 53.55779 | -3.41781 | 12319 ft | 375 kts | 315° |
| 2026-04-29 17:15 | 53.57582 | -3.44937 | 12323 ft | 375 kts | 311° |
| 2026-04-29 17:16 | 53.59164 | -3.48448 | 12318 ft | 375 kts | 305° |
| 2026-04-29 17:16 | 53.60672 | -3.52051 | 12317 ft | 375 kts | 305° |
| 2026-04-29 17:16 | 53.62183 | -3.55639 | 12310 ft | 375 kts | 305° |
| 2026-04-29 17:16 | 53.63697 | -3.59233 | 12307 ft | 375 kts | 305° |
| 2026-04-29 17:17 | 53.65188 | -3.62777 | 12304 ft | 375 kts | 305° |
| 2026-04-29 17:17 | 53.66703 | -3.66384 | 12304 ft | 377 kts | 305° |
| 2026-04-29 17:17 | 53.68214 | -3.69991 | 12304 ft | 373 kts | 305° |
| 2026-04-29 17:17 | 53.69704 | -3.73558 | 12307 ft | 373 kts | 305° |
| 2026-04-29 17:18 | 53.71200 | -3.77147 | 12301 ft | 373 kts | 305° |
| 2026-04-29 17:18 | 53.72695 | -3.80737 | 12300 ft | 373 kts | 305° |
| 2026-04-29 17:18 | 53.74165 | -3.84273 | 12300 ft | 373 kts | 305° |
| 2026-04-29 17:18 | 53.75659 | -3.87870 | 12303 ft | 373 kts | 305° |
| 2026-04-29 17:19 | 53.77149 | -3.91463 | 12303 ft | 373 kts | 305° |
| 2026-04-29 17:19 | 53.78640 | -3.95065 | 12305 ft | 373 kts | 305° |
| 2026-04-29 17:19 | 53.80129 | -3.98665 | 12301 ft | 373 kts | 305° |
| 2026-04-29 17:19 | 53.81614 | -4.02261 | 12289 ft | 372 kts | 305° |
| 2026-04-29 17:20 | 53.83089 | -4.05839 | 11999 ft | 369 kts | 305° |
| 2026-04-29 17:20 | 53.84533 | -4.09348 | 11480 ft | 365 kts | 305° |
| 2026-04-29 17:20 | 53.85813 | -4.13038 | 10882 ft | 361 kts | 292° |
| 2026-04-29 17:20 | 53.86649 | -4.16799 | 10290 ft | 357 kts | 289° |
| 2026-04-29 17:21 | 53.87523 | -4.20861 | 10029 ft | 342 kts | 289° |
| 2026-04-29 17:21 | 53.88313 | -4.24578 | 9865 ft | 325 kts | 289° |
| 2026-04-29 17:21 | 53.89055 | -4.28064 | 9702 ft | 310 kts | 289° |
| 2026-04-29 17:21 | 53.89779 | -4.31466 | 9268 ft | 306 kts | 289° |
| 2026-04-29 17:22 | 53.90505 | -4.34864 | 8739 ft | 306 kts | 289° |
| 2026-04-29 17:22 | 53.91226 | -4.38235 | 8285 ft | 304 kts | 289° |
| 2026-04-29 17:22 | 53.91944 | -4.41597 | 7803 ft | 303 kts | 289° |
| 2026-04-29 17:22 | 53.92655 | -4.44945 | 7361 ft | 301 kts | 289° |
| 2026-04-29 17:23 | 53.93359 | -4.48273 | 6931 ft | 298 kts | 289° |
| 2026-04-29 17:23 | 53.94058 | -4.51586 | 6463 ft | 297 kts | 289° |
| 2026-04-29 17:23 | 53.94744 | -4.54846 | 6029 ft | 295 kts | 289° |
| 2026-04-29 17:23 | 53.95433 | -4.58115 | 5565 ft | 293 kts | 289° |
| 2026-04-29 17:24 | 53.96126 | -4.61380 | 5104 ft | 293 kts | 289° |
| 2026-04-29 17:24 | 53.96813 | -4.64613 | 4742 ft | 285 kts | 289° |
| 2026-04-29 17:24 | 53.97468 | -4.67699 | 4555 ft | 269 kts | 289° |
| 2026-04-29 17:24 | 53.98318 | -4.70393 | 4234 ft | 260 kts | 314° |
| 2026-04-29 17:25 | 53.99761 | -4.72085 | 3910 ft | 243 kts | 345° |
| 2026-04-29 17:25 | 54.01298 | -4.72907 | 3515 ft | 227 kts | 349° |
| 2026-04-29 17:25 | 54.02798 | -4.73716 | 2944 ft | 222 kts | 349° |
| 2026-04-29 17:25 | 54.04239 | -4.74452 | 2383 ft | 213 kts | 0° |
| 2026-04-29 17:26 | 54.05611 | -4.74100 | 1818 ft | 191 kts | 32° |
| 2026-04-29 17:26 | 54.06729 | -4.73077 | 1370 ft | 165 kts | 49° |
| 2026-04-29 17:26 | 54.07315 | -4.71705 | 1183 ft | 125 kts | 71° |
| 2026-04-29 17:26 | 54.07558 | -4.70357 | 1017 ft | 115 kts | 81° |
| 2026-04-29 17:27 | 54.07677 | -4.69052 | 840 ft | 120 kts | 84° |
| 2026-04-29 17:27 | 54.07801 | -4.67586 | 644 ft | 129 kts | 81° |
| 2026-04-29 17:27 | 54.07920 | -4.66063 | 493 ft | 126 kts | 84° |
| 2026-04-29 17:27 | 54.08061 | -4.64577 | 215 ft | 124 kts | 77° |
| 2026-04-29 17:28 | 54.08239 | -4.63107 | 61 ft | 131 kts | 79° |
| 2026-04-29 17:28 | 54.08392 | -4.61850 | 29 ft | 66 kts | 78° |
| 2026-04-29 17:28 | 54.08415 | -4.61670 | 28 ft | 7 kts | 77° |
| 2026-04-29 17:28 | 54.08436 | -4.61506 | 26 ft | 11 kts | 77° |
| 2026-04-29 17:29 | 54.08470 | -4.61437 | 25 ft | 9 kts | 22° |
| 2026-04-29 17:29 | 54.08514 | -4.61463 | 26 ft | 8 kts | 317° |
| 2026-04-29 17:29 | 54.08535 | -4.61570 | 28 ft | 12 kts | 274° |
| 2026-04-29 17:29 | 54.08540 | -4.61678 | 27 ft | 16 kts | 276° |
| 2026-04-29 17:30 | 54.08542 | -4.61964 | 33 ft | 21 kts | 259° |
| 2026-04-29 17:30 | 54.08508 | -4.62236 | 38 ft | 26 kts | 260° |
| 2026-04-29 17:30 | 54.08466 | -4.62558 | 39 ft | 31 kts | 258° |
| 2026-04-29 17:30 | 54.08417 | -4.62952 | 36 ft | 37 kts | 258° |
| 2026-04-29 17:31 | 54.08456 | -4.63326 | 39 ft | 11 kts | 322° |
| 2026-04-29 17:31 | 54.08520 | -4.63350 | 40 ft | 2 kts | 319° |
| 2026-04-29 17:31 | 54.08514 | -4.63400 | 40 ft | 4 kts | 231° |
| 2026-04-29 17:31 | 54.08512 | -4.63401 | 40 ft | 0 kts | 214° |